sensor_id;sensor_type;location;lat;lon;timestamp;pressure;altitude;pressure_sealevel;temperature;humidity
57074;BME280;69035;54.392;18.574;2023-04-23T00:00:10;100965.25;;;8.34;68.96
57074;BME280;69035;54.392;18.574;2023-04-23T00:03:05;100978.38;;;8.48;68.78
57074;BME280;69035;54.392;18.574;2023-04-23T00:05:37;100959.19;;;8.54;68.31
57074;BME280;69035;54.392;18.574;2023-04-23T00:08:09;100959.19;;;8.59;68.68
57074;BME280;69035;54.392;18.574;2023-04-23T00:10:38;100967.03;;;8.63;68.55
57074;BME280;69035;54.392;18.574;2023-04-23T00:13:07;100959.19;;;8.71;68.10
57074;BME280;69035;54.392;18.574;2023-04-23T00:15:37;100949.56;;;8.70;68.97
57074;BME280;69035;54.392;18.574;2023-04-23T00:18:07;100951.34;;;8.74;68.04
57074;BME280;69035;54.392;18.574;2023-04-23T00:20:36;100959.19;;;8.77;67.96
57074;BME280;69035;54.392;18.574;2023-04-23T00:23:05;100952.19;;;8.82;67.95
57074;BME280;69035;54.392;18.574;2023-04-23T00:25:34;100949.59;;;8.87;67.09
57074;BME280;69035;54.392;18.574;2023-04-23T00:28:02;100947.81;;;8.95;67.29
57074;BME280;69035;54.392;18.574;2023-04-23T00:30:32;100942.56;;;9.04;67.19
57074;BME280;69035;54.392;18.574;2023-04-23T00:33:01;100934.66;;;9.20;66.67
57074;BME280;69035;54.392;18.574;2023-04-23T00:35:32;100938.16;;;9.27;65.42
57074;BME280;69035;54.392;18.574;2023-04-23T00:38:01;100935.53;;;9.30;65.75
57074;BME280;69035;54.392;18.574;2023-04-23T00:40:30;100940.75;;;9.30;65.41
57074;BME280;69035;54.392;18.574;2023-04-23T00:42:59;100932.88;;;9.33;66.15
57074;BME280;69035;54.392;18.574;2023-04-23T00:45:28;100929.38;;;9.35;64.70
57074;BME280;69035;54.392;18.574;2023-04-23T00:47:57;100935.47;;;9.40;65.26
57074;BME280;69035;54.392;18.574;2023-04-23T00:50:27;100931.09;;;9.47;64.57
57074;BME280;69035;54.392;18.574;2023-04-23T00:52:57;100928.44;;;9.53;65.25
57074;BME280;69035;54.392;18.574;2023-04-23T00:55:26;100924.88;;;9.67;64.28
57074;BME280;69035;54.392;18.574;2023-04-23T00:57:56;100925.72;;;9.78;63.12
57074;BME280;69035;54.392;18.574;2023-04-23T01:00:25;100919.50;;;9.93;63.54
57074;BME280;69035;54.392;18.574;2023-04-23T01:02:54;100921.16;;;10.11;62.48
57074;BME280;69035;54.392;18.574;2023-04-23T01:05:25;100923.69;;;10.23;61.54
57074;BME280;69035;54.392;18.574;2023-04-23T01:07:54;100918.47;;;10.22;60.44
57074;BME280;69035;54.392;18.574;2023-04-23T01:10:26;100918.41;;;10.36;61.50
57074;BME280;69035;54.392;18.574;2023-04-23T01:12:54;100921.00;;;10.40;59.86
57074;BME280;69035;54.392;18.574;2023-04-23T01:15:23;100923.53;;;10.50;61.14
57074;BME280;69035;54.392;18.574;2023-04-23T01:17:51;100916.47;;;10.58;59.69
57074;BME280;69035;54.392;18.574;2023-04-23T01:20:20;100914.66;;;10.66;60.44
57074;BME280;69035;54.392;18.574;2023-04-23T01:22:50;100908.41;;;10.78;59.80
57074;BME280;69035;54.392;18.574;2023-04-23T01:25:20;100912.72;;;10.88;58.46
57074;BME280;69035;54.392;18.574;2023-04-23T01:27:49;100917.03;;;10.95;58.60
57074;BME280;69035;54.392;18.574;2023-04-23T01:30:18;100903.84;;;10.97;58.36
57074;BME280;69035;54.392;18.574;2023-04-23T01:32:48;100906.44;;;11.00;58.10
57074;BME280;69035;54.392;18.574;2023-04-23T01:35:18;100900.25;;;11.06;58.14
57074;BME280;69035;54.392;18.574;2023-04-23T01:37:48;100905.50;;;11.07;58.82
57074;BME280;69035;54.392;18.574;2023-04-23T01:40:20;100905.53;;;11.06;58.35
57074;BME280;69035;54.392;18.574;2023-04-23T01:42:49;100902.97;;;10.99;58.65
57074;BME280;69035;54.392;18.574;2023-04-23T01:45:19;100896.84;;;10.94;59.25
57074;BME280;69035;54.392;18.574;2023-04-23T01:47:48;100905.69;;;10.89;58.89
57074;BME280;69035;54.392;18.574;2023-04-23T01:50:17;100904.00;;;10.80;59.27
57074;BME280;69035;54.392;18.574;2023-04-23T01:52:47;100896.19;;;10.74;58.69
57074;BME280;69035;54.392;18.574;2023-04-23T01:55:16;100885.78;;;10.60;59.80
57074;BME280;69035;54.392;18.574;2023-04-23T01:57:48;100898.97;;;10.57;60.69
57074;BME280;69035;54.392;18.574;2023-04-23T02:00:17;100892.06;;;10.42;59.67
57074;BME280;69035;54.392;18.574;2023-04-23T02:02:46;100889.50;;;10.28;59.68
57074;BME280;69035;54.392;18.574;2023-04-23T02:05:18;100884.38;;;10.16;60.92
57074;BME280;69035;54.392;18.574;2023-04-23T02:07:48;100885.34;;;9.99;61.23
57074;BME280;69035;54.392;18.574;2023-04-23T02:10:17;100880.16;;;9.85;61.58
57074;BME280;69035;54.392;18.574;2023-04-23T02:12:48;100889.88;;;9.72;61.67
57074;BME280;69035;54.392;18.574;2023-04-23T02:15:17;100882.88;;;9.68;61.99
57074;BME280;69035;54.392;18.574;2023-04-23T02:17:47;100889.91;;;9.66;61.31
57074;BME280;69035;54.392;18.574;2023-04-23T02:20:19;100882.91;;;9.64;61.93
57074;BME280;69035;54.392;18.574;2023-04-23T02:22:49;100883.81;;;9.58;61.93
57074;BME280;69035;54.392;18.574;2023-04-23T02:25:19;100884.72;;;9.54;62.28
57074;BME280;69035;54.392;18.574;2023-04-23T02:27:49;100878.63;;;9.49;62.12
57074;BME280;69035;54.392;18.574;2023-04-23T02:30:18;100879.53;;;9.40;61.65
57074;BME280;69035;54.392;18.574;2023-04-23T02:32:48;100876.91;;;9.40;62.52
57074;BME280;69035;54.392;18.574;2023-04-23T02:35:18;100877.78;;;9.34;62.43
57074;BME280;69035;54.392;18.574;2023-04-23T02:37:47;100875.16;;;9.34;63.06
57074;BME280;69035;54.392;18.574;2023-04-23T02:40:16;100869.91;;;9.37;62.24
57074;BME280;69035;54.392;18.574;2023-04-23T02:42:44;100863.78;;;9.40;61.18
57074;BME280;69035;54.392;18.574;2023-04-23T02:45:15;100864.66;;;9.45;62.64
57074;BME280;69035;54.392;18.574;2023-04-23T02:47:43;100871.63;;;9.46;61.57
57074;BME280;69035;54.392;18.574;2023-04-23T02:50:12;100871.63;;;9.45;62.72
57074;BME280;69035;54.392;18.574;2023-04-23T02:52:41;100864.63;;;9.43;62.03
57074;BME280;69035;54.392;18.574;2023-04-23T02:55:10;100867.25;;;9.43;62.65
57074;BME280;69035;54.392;18.574;2023-04-23T02:57:38;100857.63;;;9.49;61.46
57074;BME280;69035;54.392;18.574;2023-04-23T03:00:08;100859.38;;;9.50;61.81
57074;BME280;69035;54.392;18.574;2023-04-23T03:02:42;100844.56;;;9.35;61.28
57074;BME280;69035;54.392;18.574;2023-04-23T03:05:13;100866.38;;;9.43;61.44
57074;BME280;69035;54.392;18.574;2023-04-23T03:07:42;100865.53;;;9.42;62.35
57074;BME280;69035;54.392;18.574;2023-04-23T03:10:11;100862.00;;;9.43;61.75
57074;BME280;69035;54.392;18.574;2023-04-23T03:12:39;100854.16;;;9.47;62.58
57074;BME280;69035;54.392;18.574;2023-04-23T03:15:09;100859.38;;;9.43;61.72
57074;BME280;69035;54.392;18.574;2023-04-23T03:17:38;100857.66;;;9.35;63.06
57074;BME280;69035;54.392;18.574;2023-04-23T03:20:09;100859.41;;;9.36;61.99
57074;BME280;69035;54.392;18.574;2023-04-23T03:22:39;100853.31;;;9.37;62.63
57074;BME280;69035;54.392;18.574;2023-04-23T03:25:09;100842.81;;;9.37;61.50
57074;BME280;69035;54.392;18.574;2023-04-23T03:27:38;100855.06;;;9.39;61.83
57074;BME280;69035;54.392;18.574;2023-04-23T03:30:08;100842.81;;;9.37;62.39
57074;BME280;69035;54.392;18.574;2023-04-23T03:32:37;100844.56;;;9.38;62.06
57074;BME280;69035;54.392;18.574;2023-04-23T03:35:09;100845.44;;;9.37;61.80
57074;BME280;69035;54.392;18.574;2023-04-23T03:37:42;100840.19;;;9.37;62.67
57074;BME280;69035;54.392;18.574;2023-04-23T03:40:11;100841.94;;;9.35;61.85
57074;BME280;69035;54.392;18.574;2023-04-23T03:42:42;100843.69;;;9.36;61.77
57074;BME280;69035;54.392;18.574;2023-04-23T03:45:13;100850.69;;;9.37;62.68
57074;BME280;69035;54.392;18.574;2023-04-23T03:47:43;100835.81;;;9.37;61.93
57074;BME280;69035;54.392;18.574;2023-04-23T03:50:15;100841.97;;;9.36;61.73
57074;BME280;69035;54.392;18.574;2023-04-23T03:52:51;100838.41;;;9.40;62.49
57074;BME280;69035;54.392;18.574;2023-04-23T03:55:40;100835.78;;;9.40;61.59
57074;BME280;69035;54.392;18.574;2023-04-23T03:58:10;100838.41;;;9.47;61.93
57074;BME280;69035;54.392;18.574;2023-04-23T04:00:42;100842.72;;;9.57;61.53
57074;BME280;69035;54.392;18.574;2023-04-23T04:03:11;100836.53;;;9.67;60.95
57074;BME280;69035;54.392;18.574;2023-04-23T04:05:42;100833.84;;;9.76;61.34
57074;BME280;69035;54.392;18.574;2023-04-23T04:08:11;100832.91;;;9.87;60.50
57074;BME280;69035;54.392;18.574;2023-04-23T04:10:40;100835.47;;;9.93;61.11
57074;BME280;69035;54.392;18.574;2023-04-23T04:13:08;100827.56;;;10.01;61.05
57074;BME280;69035;54.392;18.574;2023-04-23T04:15:37;100820.47;;;10.10;61.24
57074;BME280;69035;54.392;18.574;2023-04-23T04:18:05;100828.31;;;10.18;60.63
57074;BME280;69035;54.392;18.574;2023-04-23T04:20:34;100826.50;;;10.25;60.38
57074;BME280;69035;54.392;18.574;2023-04-23T04:23:05;100822.94;;;10.35;60.20
57074;BME280;69035;54.392;18.574;2023-04-23T04:25:34;100817.63;;;10.43;58.80
57074;BME280;69035;54.392;18.574;2023-04-23T04:28:06;100816.66;;;10.53;59.73
57074;BME280;69035;54.392;18.574;2023-04-23T04:30:35;100816.53;;;10.64;58.88
57074;BME280;69035;54.392;18.574;2023-04-23T04:33:04;100807.63;;;10.77;59.26
57074;BME280;69035;54.392;18.574;2023-04-23T04:35:33;100817.19;;;10.86;58.61
57074;BME280;69035;54.392;18.574;2023-04-23T04:38:02;100817.09;;;10.95;58.09
57074;BME280;69035;54.392;18.574;2023-04-23T04:40:33;100810.88;;;11.03;57.94
57074;BME280;69035;54.392;18.574;2023-04-23T04:43:02;100810.69;;;11.16;58.56
57074;BME280;69035;54.392;18.574;2023-04-23T04:45:32;100804.41;;;11.28;58.23
57074;BME280;69035;54.392;18.574;2023-04-23T04:48:01;100813.06;;;11.38;57.53
57074;BME280;69035;54.392;18.574;2023-04-23T04:50:30;100808.56;;;11.46;58.09
57074;BME280;69035;54.392;18.574;2023-04-23T04:52:58;100805.72;;;11.60;56.69
57074;BME280;69035;54.392;18.574;2023-04-23T04:55:27;100801.19;;;11.70;57.27
57074;BME280;69035;54.392;18.574;2023-04-23T04:57:57;100803.66;;;11.81;56.57
57074;BME280;69035;54.392;18.574;2023-04-23T05:00:27;100794.75;;;11.91;56.67
57074;BME280;69035;54.392;18.574;2023-04-23T05:02:56;100800.75;;;12.01;56.68
57074;BME280;69035;54.392;18.574;2023-04-23T05:05:26;100795.41;;;12.06;56.34
57074;BME280;69035;54.392;18.574;2023-04-23T05:07:55;100793.47;;;12.17;55.52
57074;BME280;69035;54.392;18.574;2023-04-23T05:10:25;100790.69;;;12.28;56.02
57074;BME280;69035;54.392;18.574;2023-04-23T05:12:56;100788.69;;;12.39;55.63
57074;BME280;69035;54.392;18.574;2023-04-23T05:15:26;100788.53;;;12.50;55.00
57074;BME280;69035;54.392;18.574;2023-04-23T05:17:54;100783.19;;;12.53;55.06
57074;BME280;69035;54.392;18.574;2023-04-23T05:20:23;100783.94;;;12.61;54.87
57074;BME280;69035;54.392;18.574;2023-04-23T05:22:53;100784.59;;;12.71;54.63
57074;BME280;69035;54.392;18.574;2023-04-23T05:25:22;100776.59;;;12.77;54.02
57074;BME280;69035;54.392;18.574;2023-04-23T05:27:50;100781.59;;;12.89;53.83
57074;BME280;69035;54.392;18.574;2023-04-23T05:30:21;100777.06;;;12.98;53.54
57074;BME280;69035;54.392;18.574;2023-04-23T05:32:49;100776.69;;;13.15;53.65
57074;BME280;69035;54.392;18.574;2023-04-23T05:35:18;100772.88;;;13.30;53.33
57074;BME280;69035;54.392;18.574;2023-04-23T05:37:47;100775.22;;;13.43;52.99
57074;BME280;69035;54.392;18.574;2023-04-23T05:40:16;100772.28;;;13.57;52.87
57074;BME280;69035;54.392;18.574;2023-04-23T05:42:44;100768.38;;;13.74;52.57
57074;BME280;69035;54.392;18.574;2023-04-23T05:45:13;100762.00;;;13.83;52.15
57074;BME280;69035;54.392;18.574;2023-04-23T05:47:43;100766.16;;;13.93;52.28
57074;BME280;69035;54.392;18.574;2023-04-23T05:50:12;100761.44;;;14.06;51.62
57074;BME280;69035;54.392;18.574;2023-04-23T05:52:41;100766.47;;;14.15;51.54
57074;BME280;69035;54.392;18.574;2023-04-23T05:55:10;100753.81;;;14.28;51.44
57074;BME280;69035;54.392;18.574;2023-04-23T05:57:41;100764.97;;;14.39;50.66
57074;BME280;69035;54.392;18.574;2023-04-23T06:00:11;100755.94;;;14.48;50.89
57074;BME280;69035;54.392;18.574;2023-04-23T06:02:40;100757.38;;;14.60;50.72
57074;BME280;69035;54.392;18.574;2023-04-23T06:05:11;100748.81;;;14.50;48.78
57074;BME280;69035;54.392;18.574;2023-04-23T06:07:41;100750.38;;;14.57;49.50
57074;BME280;69035;54.392;18.574;2023-04-23T06:10:10;100745.59;;;14.72;50.03
57074;BME280;69035;54.392;18.574;2023-04-23T06:12:39;100737.09;;;14.92;50.07
57074;BME280;69035;54.392;18.574;2023-04-23T06:15:08;100739.66;;;14.95;48.76
57074;BME280;69035;54.392;18.574;2023-04-23T06:17:37;100737.44;;;15.11;50.05
57074;BME280;69035;54.392;18.574;2023-04-23T06:20:07;100734.31;;;15.26;49.73
57074;BME280;69035;54.392;18.574;2023-04-23T06:22:39;100734.09;;;15.34;49.08
57074;BME280;69035;54.392;18.574;2023-04-23T06:25:08;100727.59;;;15.44;48.88
57074;BME280;69035;54.392;18.574;2023-04-23T06:27:37;100727.28;;;15.54;48.70
57074;BME280;69035;54.392;18.574;2023-04-23T06:30:13;100721.66;;;15.64;48.71
57074;BME280;69035;54.392;18.574;2023-04-23T06:32:43;100723.03;;;15.76;48.04
57074;BME280;69035;54.392;18.574;2023-04-23T06:35:12;100734.28;;;15.84;47.84
57074;BME280;69035;54.392;18.574;2023-04-23T06:37:42;100719.81;;;15.95;47.44
57074;BME280;69035;54.392;18.574;2023-04-23T06:40:11;100726.47;;;16.07;48.13
57074;BME280;69035;54.392;18.574;2023-04-23T06:42:39;100729.75;;;16.13;47.77
57074;BME280;69035;54.392;18.574;2023-04-23T06:45:30;100726.94;;;16.19;47.13
57074;BME280;69035;54.392;18.574;2023-04-23T06:47:59;100724.84;;;16.28;47.32
57074;BME280;69035;54.392;18.574;2023-04-23T06:50:28;100728.97;;;16.36;47.18
57074;BME280;69035;54.392;18.574;2023-04-23T06:52:58;100724.53;;;16.37;46.94
57074;BME280;69035;54.392;18.574;2023-04-23T06:55:27;100729.69;;;16.42;46.97
57074;BME280;69035;54.392;18.574;2023-04-23T06:57:56;100716.84;;;16.54;46.87
57074;BME280;69035;54.392;18.574;2023-04-23T07:00:25;100720.06;;;16.63;47.25
57074;BME280;69035;54.392;18.574;2023-04-23T07:02:54;100720.84;;;16.66;47.51
57074;BME280;69035;54.392;18.574;2023-04-23T07:05:23;100709.88;;;16.76;47.16
57074;BME280;69035;54.392;18.574;2023-04-23T07:07:52;100709.63;;;16.82;46.84
57074;BME280;69035;54.392;18.574;2023-04-23T07:10:22;100697.97;;;16.87;46.25
57074;BME280;69035;54.392;18.574;2023-04-23T07:12:51;100697.50;;;17.00;46.01
57074;BME280;69035;54.392;18.574;2023-04-23T07:15:19;100700.16;;;17.00;45.80
57074;BME280;69035;54.392;18.574;2023-04-23T07:17:49;100706.97;;;17.07;45.74
57074;BME280;69035;54.392;18.574;2023-04-23T07:20:18;100707.28;;;17.21;45.80
57074;BME280;69035;54.392;18.574;2023-04-23T07:22:47;100693.00;;;17.24;45.64
57074;BME280;69035;54.392;18.574;2023-04-23T07:25:16;100693.44;;;17.35;44.98
57074;BME280;69035;54.392;18.574;2023-04-23T07:27:45;100700.00;;;17.49;45.06
57074;BME280;69035;54.392;18.574;2023-04-23T07:30:14;100685.53;;;17.56;44.89
57074;BME280;69035;54.392;18.574;2023-04-23T07:32:43;100685.47;;;17.57;44.41
57074;BME280;69035;54.392;18.574;2023-04-23T07:35:12;100688.75;;;17.64;44.27
57074;BME280;69035;54.392;18.574;2023-04-23T07:37:41;100675.81;;;17.77;44.50
57074;BME280;69035;54.392;18.574;2023-04-23T07:40:10;100680.09;;;17.81;44.25
57074;BME280;69035;54.392;18.574;2023-04-23T07:42:39;100664.63;;;17.91;44.29
57074;BME280;69035;54.392;18.574;2023-04-23T07:45:10;100665.22;;;17.98;43.49
57074;BME280;69035;54.392;18.574;2023-04-23T07:47:39;100669.06;;;18.11;43.82
57074;BME280;69035;54.392;18.574;2023-04-23T07:50:08;100665.41;;;18.14;43.22
57074;BME280;69035;54.392;18.574;2023-04-23T07:52:37;100669.41;;;18.24;43.02
57074;BME280;69035;54.392;18.574;2023-04-23T07:55:07;100660.22;;;18.31;42.93
57074;BME280;69035;54.392;18.574;2023-04-23T07:57:36;100666.66;;;18.46;43.49
57074;BME280;69035;54.392;18.574;2023-04-23T08:00:06;100660.56;;;18.63;42.68
57074;BME280;69035;54.392;18.574;2023-04-23T08:02:41;100659.56;;;18.85;42.75
57074;BME280;69035;54.392;18.574;2023-04-23T08:05:11;100656.13;;;19.02;42.34
57074;BME280;69035;54.392;18.574;2023-04-23T08:07:40;100648.91;;;19.23;42.21
57074;BME280;69035;54.392;18.574;2023-04-23T08:10:09;100647.06;;;19.42;42.15
57074;BME280;69035;54.392;18.574;2023-04-23T08:12:37;100646.16;;;19.61;41.61
57074;BME280;69035;54.392;18.574;2023-04-23T08:15:08;100641.22;;;19.71;41.34
57074;BME280;69035;54.392;18.574;2023-04-23T08:17:42;100636.38;;;19.79;40.86
57074;BME280;69035;54.392;18.574;2023-04-23T08:20:10;100640.06;;;19.94;40.57
57074;BME280;69035;54.392;18.574;2023-04-23T08:22:39;100644.16;;;20.01;40.15
57074;BME280;69035;54.392;18.574;2023-04-23T08:25:08;100637.38;;;20.11;40.24
57074;BME280;69035;54.392;18.574;2023-04-23T08:27:38;100627.44;;;20.31;40.26
57074;BME280;69035;54.392;18.574;2023-04-23T08:30:08;100624.81;;;20.47;40.20
57074;BME280;69035;54.392;18.574;2023-04-23T08:32:38;100623.09;;;20.62;40.00
57074;BME280;69035;54.392;18.574;2023-04-23T08:35:08;100626.69;;;20.78;39.45
57074;BME280;69035;54.392;18.574;2023-04-23T08:37:38;100620.66;;;20.90;39.02
57074;BME280;69035;54.392;18.574;2023-04-23T08:40:08;100614.38;;;21.07;38.95
57074;BME280;69035;54.392;18.574;2023-04-23T08:42:37;100615.41;;;21.05;37.06
57074;BME280;69035;54.392;18.574;2023-04-23T08:45:08;100602.44;;;21.29;38.95
57074;BME280;69035;54.392;18.574;2023-04-23T08:47:37;100608.38;;;21.34;37.99
57074;BME280;69035;54.392;18.574;2023-04-23T08:50:12;100603.91;;;21.65;38.03
57074;BME280;69035;54.392;18.574;2023-04-23T08:52:46;100601.00;;;21.84;37.63
57074;BME280;69035;54.392;18.574;2023-04-23T08:55:15;100599.22;;;21.99;37.59
57074;BME280;69035;54.392;18.574;2023-04-23T08:57:45;100594.16;;;21.94;35.67
57074;BME280;69035;54.392;18.574;2023-04-23T09:00:15;100602.34;;;22.06;37.90
57074;BME280;69035;54.392;18.574;2023-04-23T09:02:45;100591.56;;;22.22;37.53
57074;BME280;69035;54.392;18.574;2023-04-23T09:05:16;100572.28;;;22.31;37.14
57074;BME280;69035;54.392;18.574;2023-04-23T09:07:45;100596.75;;;22.54;37.29
57074;BME280;69035;54.392;18.574;2023-04-23T09:10:14;100589.09;;;22.62;36.79
57074;BME280;69035;54.392;18.574;2023-04-23T09:12:46;100580.66;;;22.68;36.77
57074;BME280;69035;54.392;18.574;2023-04-23T09:15:16;100588.97;;;22.78;36.77
57074;BME280;69035;54.392;18.574;2023-04-23T09:17:46;100585.38;;;22.92;36.31
57074;BME280;69035;54.392;18.574;2023-04-23T09:20:17;100571.69;;;22.96;34.92
57074;BME280;69035;54.392;18.574;2023-04-23T09:22:47;100577.06;;;22.96;35.64
57074;BME280;69035;54.392;18.574;2023-04-23T09:25:18;100574.50;;;23.08;35.56
57074;BME280;69035;54.392;18.574;2023-04-23T09:27:49;100574.84;;;23.30;35.56
57074;BME280;69035;54.392;18.574;2023-04-23T09:30:18;100579.81;;;23.49;35.62
57074;BME280;69035;54.392;18.574;2023-04-23T09:32:47;100573.38;;;23.52;35.18
57074;BME280;69035;54.392;18.574;2023-04-23T09:35:18;100578.09;;;23.48;34.26
57074;BME280;69035;54.392;18.574;2023-04-23T09:37:48;100566.44;;;23.75;35.15
57074;BME280;69035;54.392;18.574;2023-04-23T09:40:20;100577.06;;;23.77;33.21
57074;BME280;69035;54.392;18.574;2023-04-23T09:42:50;100565.59;;;23.88;34.26
57074;BME280;69035;54.392;18.574;2023-04-23T09:45:21;100556.28;;;23.93;33.93
57074;BME280;69035;54.392;18.574;2023-04-23T09:47:53;100554.97;;;24.25;34.09
57074;BME280;69035;54.392;18.574;2023-04-23T09:50:32;100550.22;;;24.28;32.36
57074;BME280;69035;54.392;18.574;2023-04-23T09:53:02;100518.25;;;24.12;32.76
57074;BME280;69035;54.392;18.574;2023-04-23T09:55:33;100549.38;;;24.28;32.57
57074;BME280;69035;54.392;18.574;2023-04-23T09:58:06;100544.50;;;24.33;32.24
57074;BME280;69035;54.392;18.574;2023-04-23T10:00:36;100536.84;;;24.52;32.35
57074;BME280;69035;54.392;18.574;2023-04-23T10:03:05;100527.06;;;24.64;32.28
57074;BME280;69035;54.392;18.574;2023-04-23T10:05:40;100514.78;;;24.73;31.27
57074;BME280;69035;54.392;18.574;2023-04-23T10:08:13;100516.03;;;24.80;31.96
57074;BME280;69035;54.392;18.574;2023-04-23T10:10:43;100510.03;;;25.01;32.15
57074;BME280;69035;54.392;18.574;2023-04-23T10:13:33;100519.50;;;25.18;31.70
57074;BME280;69035;54.392;18.574;2023-04-23T10:16:03;100500.59;;;25.31;31.55
57074;BME280;69035;54.392;18.574;2023-04-23T10:18:50;100508.59;;;25.44;30.90
57074;BME280;69035;54.392;18.574;2023-04-23T10:21:25;100505.41;;;25.50;30.71
57074;BME280;69035;54.392;18.574;2023-04-23T10:24:12;100496.03;;;25.67;30.71
57074;BME280;69035;54.392;18.574;2023-04-23T10:26:43;100488.69;;;25.57;29.55
57074;BME280;69035;54.392;18.574;2023-04-23T10:29:14;100497.34;;;25.38;29.30
57074;BME280;69035;54.392;18.574;2023-04-23T10:31:44;100495.38;;;25.40;29.60
57074;BME280;69035;54.392;18.574;2023-04-23T10:34:14;100493.66;;;25.39;29.83
57074;BME280;69035;54.392;18.574;2023-04-23T10:36:44;100500.28;;;25.58;30.11
57074;BME280;69035;54.392;18.574;2023-04-23T10:39:13;100484.78;;;25.73;29.93
57074;BME280;69035;54.392;18.574;2023-04-23T10:41:56;100483.19;;;25.82;30.03
57074;BME280;69035;54.392;18.574;2023-04-23T10:44:31;100472.19;;;25.96;29.73
57074;BME280;69035;54.392;18.574;2023-04-23T10:47:20;100472.66;;;26.24;29.36
57074;BME280;69035;54.392;18.574;2023-04-23T10:49:49;100471.19;;;26.31;29.72
57074;BME280;69035;54.392;18.574;2023-04-23T10:52:20;100472.63;;;26.47;29.08
57074;BME280;69035;54.392;18.574;2023-04-23T10:54:56;100460.75;;;26.49;27.98
57074;BME280;69035;54.392;18.574;2023-04-23T10:57:26;100454.75;;;26.45;28.39
57074;BME280;69035;54.392;18.574;2023-04-23T10:59:55;100462.38;;;26.40;27.98
57074;BME280;69035;54.392;18.574;2023-04-23T11:02:25;100461.50;;;26.40;27.77
57074;BME280;69035;54.392;18.574;2023-04-23T11:04:55;100449.78;;;26.18;27.52
57074;BME280;69035;54.392;18.574;2023-04-23T11:07:30;100451.47;;;26.31;27.52
57074;BME280;69035;54.392;18.574;2023-04-23T11:09:59;100447.72;;;26.22;27.69
57074;BME280;69035;54.392;18.574;2023-04-23T11:12:32;100443.78;;;26.37;27.32
57074;BME280;69035;54.392;18.574;2023-04-23T11:15:09;100433.19;;;26.45;26.96
57074;BME280;69035;54.392;18.574;2023-04-23T11:17:58;100438.56;;;26.45;25.33
57074;BME280;69035;54.392;18.574;2023-04-23T11:20:27;100431.94;;;26.61;27.16
57074;BME280;69035;54.392;18.574;2023-04-23T11:22:58;100429.28;;;26.82;26.39
57074;BME280;69035;54.392;18.574;2023-04-23T11:25:27;100431.41;;;27.00;26.84
57074;BME280;69035;54.392;18.574;2023-04-23T11:27:57;100435.69;;;27.02;26.14
57074;BME280;69035;54.392;18.574;2023-04-23T11:30:27;100431.59;;;27.08;25.92
57074;BME280;69035;54.392;18.574;2023-04-23T11:32:57;100416.75;;;27.13;25.20
57074;BME280;69035;54.392;18.574;2023-04-23T11:35:28;100426.88;;;27.00;24.36
57074;BME280;69035;54.392;18.574;2023-04-23T11:38:08;100424.06;;;27.02;23.06
57074;BME280;69035;54.392;18.574;2023-04-23T11:40:37;100416.41;;;27.07;23.42
57074;BME280;69035;54.392;18.574;2023-04-23T11:43:09;100418.63;;;27.23;24.10
57074;BME280;69035;54.392;18.574;2023-04-23T11:45:37;100423.00;;;27.35;23.35
57074;BME280;69035;54.392;18.574;2023-04-23T11:48:06;100425.03;;;27.43;23.17
57074;BME280;69035;54.392;18.574;2023-04-23T11:50:35;100417.91;;;27.42;22.68
57074;BME280;69035;54.392;18.574;2023-04-23T11:53:05;100424.69;;;27.36;22.26
57074;BME280;69035;54.392;18.574;2023-04-23T11:55:36;100415.91;;;27.34;23.00
57074;BME280;69035;54.392;18.574;2023-04-23T11:58:10;100405.72;;;27.47;22.12
57074;BME280;69035;54.392;18.574;2023-04-23T12:00:38;100427.19;;;27.49;22.83
57074;BME280;69035;54.392;18.574;2023-04-23T12:03:07;100425.06;;;27.31;22.10
57074;BME280;69035;54.392;18.574;2023-04-23T12:05:43;100409.91;;;27.30;21.77
57074;BME280;69035;54.392;18.574;2023-04-23T12:08:15;100416.09;;;27.42;22.14
57074;BME280;69035;54.392;18.574;2023-04-23T12:10:47;100403.34;;;27.54;21.59
57074;BME280;69035;54.392;18.574;2023-04-23T12:13:17;100396.84;;;27.57;22.04
57074;BME280;69035;54.392;18.574;2023-04-23T12:15:47;100408.22;;;27.60;22.49
57074;BME280;69035;54.392;18.574;2023-04-23T12:18:17;100399.97;;;27.62;22.38
57074;BME280;69035;54.392;18.574;2023-04-23T12:20:45;100401.84;;;27.71;22.02
57074;BME280;69035;54.392;18.574;2023-04-23T12:23:14;100391.66;;;27.75;22.27
57074;BME280;69035;54.392;18.574;2023-04-23T12:25:44;100389.88;;;27.95;22.78
57074;BME280;69035;54.392;18.574;2023-04-23T12:28:13;100383.09;;;28.00;22.64
57074;BME280;69035;54.392;18.574;2023-04-23T12:30:42;100389.00;;;27.94;22.02
57074;BME280;69035;54.392;18.574;2023-04-23T12:33:12;100383.66;;;28.04;22.34
57074;BME280;69035;54.392;18.574;2023-04-23T12:35:42;100377.91;;;27.88;22.07
57074;BME280;69035;54.392;18.574;2023-04-23T12:38:21;100380.00;;;27.74;22.21
57074;BME280;69035;54.392;18.574;2023-04-23T12:40:53;100384.75;;;27.61;22.68
57074;BME280;69035;54.392;18.574;2023-04-23T12:43:22;100371.19;;;27.41;22.68
57074;BME280;69035;54.392;18.574;2023-04-23T12:45:51;100379.78;;;27.04;21.43
57074;BME280;69035;54.392;18.574;2023-04-23T12:48:20;100377.13;;;27.14;22.78
57074;BME280;69035;54.392;18.574;2023-04-23T12:50:48;100369.66;;;27.27;23.15
57074;BME280;69035;54.392;18.574;2023-04-23T12:53:17;100386.97;;;27.46;23.04
57074;BME280;69035;54.392;18.574;2023-04-23T12:55:45;100372.72;;;27.65;23.10
57074;BME280;69035;54.392;18.574;2023-04-23T12:58:16;100359.94;;;27.67;22.35